Champayan — XCTZ5 — position and weather

sailwx.info

Track history (hours):
 
Tides and Currents Weather Stations Pressure Air Temp Water Temp Dewpoint Dewpoint Depression Visibility Wind Speed Wind Dir Waves Ship Positions

Champayan

Last reported at 2017-Sep-16 17:17 UTC. Time now 2017-Sep-26 21:47 UTC.
Position N 19°06' W 095°37'.
Warning: this ship's position is 10 days out of date.

Length 33 m; draft 6 m.

Type: Towing. MMSI: 345010070.

Date/timePositionNaut miles runAvg speedWind from/ knotsBaromVisibWave heightAir tempDewpointWater temp
2017-Sep-16 17:17N 19°06' W 095°37'2 6.2
2017-Sep-16 17:00N 19°07' W 095°38'5 6.3
2017-Sep-16 16:13N 19°09' W 095°42'1 6.3
2017-Sep-16 16:00N 19°10' W 095°44'3 6.2
2017-Sep-16 15:30N 19°12' W 095°46'3 6.4
2017-Sep-16 15:00N 19°12' W 095°50'4 7.0
2017-Sep-16 14:30N 19°12' W 095°53'4 7.1
2017-Sep-16 14:00N 19°12' W 095°57'4 7.1
2017-Sep-16 13:30N 19°12' W 096°01'3 6.0
2017-Sep-16 13:00N 19°11' W 096°04'3 5.5
2017-Sep-16 12:30N 19°12' W 096°07'2 3.1
2017-Sep-16 12:01N 19°13' W 096°08'0 0.1
2017-Sep-16 11:30N 19°13' W 096°08'0 0.0
2017-Sep-16 11:01N 19°13' W 096°08'0 0.0
2017-Sep-16 10:30N 19°13' W 096°08'0 0.0
2017-Sep-16 10:00N 19°13' W 096°08'0 0.0
2017-Sep-16 09:30N 19°13' W 096°08'0 0.0
2017-Sep-16 09:01N 19°13' W 096°08'0 0.0
2017-Sep-16 08:30N 19°13' W 096°08'0 0.1
2017-Sep-16 08:01N 19°13' W 096°08'0 0.0
2017-Sep-16 07:30N 19°13' W 096°08'0 0.0
2017-Sep-16 07:00N 19°13' W 096°08'0 0.0
2017-Sep-16 06:30N 19°13' W 096°08'0 0.0
2017-Sep-16 06:01N 19°13' W 096°08'0 0.0
2017-Sep-16 05:30N 19°13' W 096°08'0 0.0
2017-Sep-16 05:00N 19°13' W 096°08'0 0.0
2017-Sep-16 04:30N 19°13' W 096°08'0 0.0
2017-Sep-16 04:00N 19°13' W 096°08'0 0.1
2017-Sep-16 03:30N 19°13' W 096°08'0 0.0
2017-Sep-16 03:00N 19°13' W 096°08'0 0.0
2017-Sep-16 02:31N 19°13' W 096°08'0 0.0
2017-Sep-16 02:01N 19°13' W 096°08'0 0.1
2017-Sep-16 01:30N 19°13' W 096°08'0 0.1
2017-Sep-16 01:00N 19°13' W 096°08'0 0.0
2017-Sep-16 00:30N 19°13' W 096°08'0 0.0
2017-Sep-16 00:00N 19°13' W 096°08'0 0.2
2017-Sep-15 23:30N 19°13' W 096°08'1 1.1
2017-Sep-15 23:00N 19°12' W 096°08'0 0.0
2017-Sep-15 22:30N 19°12' W 096°08'0 0.0
2017-Sep-15 22:00N 19°12' W 096°08'0 0.0
2017-Sep-15 21:30N 19°12' W 096°08'0 0.0
2017-Sep-15 21:00N 19°12' W 096°08'0 0.0
2017-Sep-15 20:30N 19°12' W 096°08'0 0.0
2017-Sep-15 20:00N 19°12' W 096°08'0 0.0
2017-Sep-15 19:30N 19°12' W 096°08'0 0.0
2017-Sep-15 19:00N 19°12' W 096°08'0 0.0
2017-Sep-15 18:30N 19°12' W 096°08'0 0.0
2017-Sep-15 18:00N 19°12' W 096°08'0 0.0
2017-Sep-15 17:30N 19°12' W 096°08'0 0.9
2017-Sep-15 17:00N 19°12' W 096°08'0 0.2
2017-Sep-15 16:30N 19°12' W 096°08'0 0.0
2017-Sep-15 16:00N 19°12' W 096°08'0 0.0
2017-Sep-15 15:30N 19°12' W 096°08'0 0.0
2017-Sep-15 15:01N 19°12' W 096°08'0 0.0
2017-Sep-15 14:30N 19°12' W 096°08'0 0.0
2017-Sep-15 14:01N 19°12' W 096°08'0 0.0
2017-Sep-15 13:31N 19°12' W 096°08'0 0.0
2017-Sep-15 13:00N 19°12' W 096°08'0 0.0
2017-Sep-15 12:31N 19°12' W 096°08'0 0.0
2017-Sep-15 12:01N 19°12' W 096°08'0 0.0
2017-Sep-15 11:30N 19°12' W 096°08'0 0.0
2017-Sep-15 11:00N 19°12' W 096°08'0 0.0
2017-Sep-15 10:30N 19°12' W 096°08'0 0.0
2017-Sep-15 10:00N 19°12' W 096°08'0 0.0
2017-Sep-15 09:30N 19°12' W 096°08'0 0.0
2017-Sep-15 09:01N 19°12' W 096°08'0 0.0
2017-Sep-15 08:31N 19°12' W 096°08'0 0.0
2017-Sep-15 08:01N 19°12' W 096°08'0 0.0
2017-Sep-15 07:31N 19°12' W 096°08'0 0.0
2017-Sep-15 07:00N 19°12' W 096°08'0 0.0
2017-Sep-15 06:30N 19°12' W 096°08'0 0.0
2017-Sep-15 06:01N 19°12' W 096°08'0 0.0
2017-Sep-15 05:30N 19°12' W 096°08'0 0.0
2017-Sep-15 05:01N 19°12' W 096°08'0 0.0
2017-Sep-15 04:30N 19°12' W 096°08'0 0.0
2017-Sep-15 04:01N 19°12' W 096°08'0 0.0
2017-Sep-15 03:30N 19°12' W 096°08'0 0.0
2017-Sep-15 03:00N 19°12' W 096°08'0 0.0
2017-Sep-15 02:31N 19°12' W 096°08'0 0.0
2017-Sep-15 02:00N 19°12' W 096°08'0 0.0
2017-Sep-15 01:30N 19°12' W 096°08'0 0.0
2017-Sep-15 01:01N 19°12' W 096°08'0 0.0
2017-Sep-15 00:30N 19°12' W 096°08'0 0.0
2017-Sep-15 00:00N 19°12' W 096°08'0 0.0
2017-Sep-14 23:30N 19°12' W 096°08'0 0.0
2017-Sep-14 23:00N 19°12' W 096°08'0 0.0
2017-Sep-14 22:30N 19°12' W 096°08'0 0.0
2017-Sep-14 22:01N 19°12' W 096°08'0 0.0
2017-Sep-14 21:30N 19°12' W 096°08'0 0.0
2017-Sep-14 21:01N 19°12' W 096°08'0 0.0
2017-Sep-14 20:30N 19°12' W 096°08'0 0.0
2017-Sep-14 20:01N 19°12' W 096°08'0 0.0
2017-Sep-14 19:31N 19°12' W 096°08'0 0.0
2017-Sep-14 19:00N 19°12' W 096°08'0 0.0
2017-Sep-14 18:30N 19°12' W 096°08'0 0.0
2017-Sep-14 18:00N 19°12' W 096°08'0 0.0
2017-Sep-14 17:30N 19°12' W 096°08'0 0.0
2017-Sep-14 17:00N 19°12' W 096°08'0 0.0
2017-Sep-14 16:31N 19°12' W 096°08'0 0.0
2017-Sep-14 16:00N 19°12' W 096°08'0 0.0
2017-Sep-14 15:30N 19°12' W 096°08'0 0.0
2017-Sep-14 15:00N 19°12' W 096°08'0 0.0
2017-Sep-14 14:30N 19°12' W 096°08'0 0.0
2017-Sep-14 14:01N 19°12' W 096°08'0 0.0
2017-Sep-14 13:31N 19°12' W 096°08'0 0.0
2017-Sep-14 13:01N 19°12' W 096°08'0 0.0
2017-Sep-14 12:31N 19°12' W 096°08'0 0.0
2017-Sep-14 12:00N 19°12' W 096°08'0 0.0
2017-Sep-14 11:31N 19°12' W 096°08'0 0.0
2017-Sep-14 11:01N 19°12' W 096°08'0 0.0
2017-Sep-14 10:30N 19°12' W 096°08'0 0.0
2017-Sep-14 10:00N 19°12' W 096°08'0 0.0
2017-Sep-14 09:31N 19°12' W 096°08'0 0.0
2017-Sep-14 09:01N 19°12' W 096°08'0 0.0
2017-Sep-14 08:30N 19°12' W 096°08'0 0.0
2017-Sep-14 08:00N 19°12' W 096°08'0 0.0
2017-Sep-14 07:30N 19°12' W 096°08'0 0.0
2017-Sep-14 07:00N 19°12' W 096°08'0 0.0
2017-Sep-14 06:30N 19°12' W 096°08'0 0.0
2017-Sep-14 06:00N 19°12' W 096°08'0 0.0
2017-Sep-14 05:30N 19°12' W 096°08'0 0.0
2017-Sep-14 05:00N 19°12' W 096°08'0 0.0
2017-Sep-14 04:31N 19°12' W 096°08'0 0.0
2017-Sep-14 04:00N 19°12' W 096°08'0 0.0
2017-Sep-14 03:31N 19°12' W 096°08'0 0.5
2017-Sep-14 03:00N 19°12' W 096°08'1 1.3
2017-Sep-14 02:30N 19°13' W 096°08'0 0.0
2017-Sep-14 02:00N 19°13' W 096°08'0 0.0
2017-Sep-14 01:30N 19°13' W 096°08'0 0.0
2017-Sep-14 01:00N 19°13' W 096°08'0 0.0
2017-Sep-14 00:30N 19°13' W 096°08'0 0.0
2017-Sep-14 00:00N 19°13' W 096°08'0 0.0
2017-Sep-13 23:30N 19°13' W 096°08'1 1.8
2017-Sep-13 23:01N 19°12' W 096°08'0 0.0
2017-Sep-13 22:30N 19°12' W 096°08'0 0.0
2017-Sep-13 22:00N 19°12' W 096°08'0 0.0
2017-Sep-13 21:31N 19°12' W 096°08'0 0.0
2017-Sep-13 21:01N 19°12' W 096°08'0 0.0
2017-Sep-13 20:31N 19°12' W 096°08'0 0.1
2017-Sep-13 20:01N 19°12' W 096°08'1 2.1
2017-Sep-13 19:30N 19°12' W 096°06'3 5.1
2017-Sep-13 19:00N 19°11' W 096°04'2 4.0
2017-Sep-13 18:30N 19°11' W 096°02'2 4.7
2017-Sep-13 18:00N 19°12' W 095°59'1 2.2
2017-Sep-13 17:30N 19°12' W 095°58'0 0.7
2017-Sep-13 17:00N 19°12' W 095°58'1 1.8
2017-Sep-13 16:30N 19°13' W 095°57'0 0.2
2017-Sep-13 16:00N 19°13' W 095°58'1 1.8
2017-Sep-13 15:30N 19°13' W 095°57'1 1.7
2017-Sep-13 15:00N 19°14' W 095°56'3 6.2
2017-Sep-13 14:30N 19°14' W 095°53'3 6.2
2017-Sep-13 14:00N 19°15' W 095°50'3 6.1
2017-Sep-13 13:30N 19°15' W 095°46'6 6.6
2017-Sep-13 12:34N 19°12' W 095°41'  
Track history (hours):
 
Tides and Currents Weather Stations Pressure Air Temp Water Temp Dewpoint Dewpoint Depression Visibility Wind Speed Wind Dir Waves Ship Positions

Champayan

Last reported at 2017-Sep-16 17:17 UTC. Time now 2017-Sep-26 21:47 UTC.
Position N 19°06' W 095°37'.
Warning: this ship's position is 10 days out of date.

Length 33 m; draft 6 m.

Type: Towing. MMSI: 345010070.

Date/timePositionNaut miles runAvg speedWind from/ knotsBaromVisibWave heightAir tempDewpointWater temp
2017-Sep-16 17:17N 19°06' W 095°37'2 6.2
2017-Sep-16 17:00N 19°07' W 095°38'5 6.3
2017-Sep-16 16:13N 19°09' W 095°42'1 6.3
2017-Sep-16 16:00N 19°10' W 095°44'3 6.2
2017-Sep-16 15:30N 19°12' W 095°46'3 6.4
2017-Sep-16 15:00N 19°12' W 095°50'4 7.0
2017-Sep-16 14:30N 19°12' W 095°53'4 7.1
2017-Sep-16 14:00N 19°12' W 095°57'4 7.1
2017-Sep-16 13:30N 19°12' W 096°01'3 6.0
2017-Sep-16 13:00N 19°11' W 096°04'3 5.5
2017-Sep-16 12:30N 19°12' W 096°07'2 3.1
2017-Sep-16 12:01N 19°13' W 096°08'0 0.1
2017-Sep-16 11:30N 19°13' W 096°08'0 0.0
2017-Sep-16 11:01N 19°13' W 096°08'0 0.0
2017-Sep-16 10:30N 19°13' W 096°08'0 0.0
2017-Sep-16 10:00N 19°13' W 096°08'0 0.0
2017-Sep-16 09:30N 19°13' W 096°08'0 0.0
2017-Sep-16 09:01N 19°13' W 096°08'0 0.0
2017-Sep-16 08:30N 19°13' W 096°08'0 0.1
2017-Sep-16 08:01N 19°13' W 096°08'0 0.0
2017-Sep-16 07:30N 19°13' W 096°08'0 0.0
2017-Sep-16 07:00N 19°13' W 096°08'0 0.0
2017-Sep-16 06:30N 19°13' W 096°08'0 0.0
2017-Sep-16 06:01N 19°13' W 096°08'0 0.0
2017-Sep-16 05:30N 19°13' W 096°08'0 0.0
2017-Sep-16 05:00N 19°13' W 096°08'0 0.0
2017-Sep-16 04:30N 19°13' W 096°08'0 0.0
2017-Sep-16 04:00N 19°13' W 096°08'0 0.1
2017-Sep-16 03:30N 19°13' W 096°08'0 0.0
2017-Sep-16 03:00N 19°13' W 096°08'0 0.0
2017-Sep-16 02:31N 19°13' W 096°08'0 0.0
2017-Sep-16 02:01N 19°13' W 096°08'0 0.1
2017-Sep-16 01:30N 19°13' W 096°08'0 0.1
2017-Sep-16 01:00N 19°13' W 096°08'0 0.0
2017-Sep-16 00:30N 19°13' W 096°08'0 0.0
2017-Sep-16 00:00N 19°13' W 096°08'0 0.2
2017-Sep-15 23:30N 19°13' W 096°08'1 1.1
2017-Sep-15 23:00N 19°12' W 096°08'0 0.0
2017-Sep-15 22:30N 19°12' W 096°08'0 0.0
2017-Sep-15 22:00N 19°12' W 096°08'0 0.0
2017-Sep-15 21:30N 19°12' W 096°08'0 0.0
2017-Sep-15 21:00N 19°12' W 096°08'0 0.0
2017-Sep-15 20:30N 19°12' W 096°08'0 0.0
2017-Sep-15 20:00N 19°12' W 096°08'0 0.0
2017-Sep-15 19:30N 19°12' W 096°08'0 0.0
2017-Sep-15 19:00N 19°12' W 096°08'0 0.0
2017-Sep-15 18:30N 19°12' W 096°08'0 0.0
2017-Sep-15 18:00N 19°12' W 096°08'0 0.0
2017-Sep-15 17:30N 19°12' W 096°08'0 0.9
2017-Sep-15 17:00N 19°12' W 096°08'0 0.2
2017-Sep-15 16:30N 19°12' W 096°08'0 0.0
2017-Sep-15 16:00N 19°12' W 096°08'0 0.0
2017-Sep-15 15:30N 19°12' W 096°08'0 0.0
2017-Sep-15 15:01N 19°12' W 096°08'0 0.0
2017-Sep-15 14:30N 19°12' W 096°08'0 0.0
2017-Sep-15 14:01N 19°12' W 096°08'0 0.0
2017-Sep-15 13:31N 19°12' W 096°08'0 0.0
2017-Sep-15 13:00N 19°12' W 096°08'0 0.0
2017-Sep-15 12:31N 19°12' W 096°08'0 0.0
2017-Sep-15 12:01N 19°12' W 096°08'0 0.0
2017-Sep-15 11:30N 19°12' W 096°08'0 0.0
2017-Sep-15 11:00N 19°12' W 096°08'0 0.0
2017-Sep-15 10:30N 19°12' W 096°08'0 0.0
2017-Sep-15 10:00N 19°12' W 096°08'0 0.0
2017-Sep-15 09:30N 19°12' W 096°08'0 0.0
2017-Sep-15 09:01N 19°12' W 096°08'0 0.0
2017-Sep-15 08:31N 19°12' W 096°08'0 0.0
2017-Sep-15 08:01N 19°12' W 096°08'0 0.0
2017-Sep-15 07:31N 19°12' W 096°08'0 0.0
2017-Sep-15 07:00N 19°12' W 096°08'0 0.0
2017-Sep-15 06:30N 19°12' W 096°08'0 0.0
2017-Sep-15 06:01N 19°12' W 096°08'0 0.0
2017-Sep-15 05:30N 19°12' W 096°08'0 0.0
2017-Sep-15 05:01N 19°12' W 096°08'0 0.0
2017-Sep-15 04:30N 19°12' W 096°08'0 0.0
2017-Sep-15 04:01N 19°12' W 096°08'0 0.0
2017-Sep-15 03:30N 19°12' W 096°08'0 0.0
2017-Sep-15 03:00N 19°12' W 096°08'0 0.0
2017-Sep-15 02:31N 19°12' W 096°08'0 0.0
2017-Sep-15 02:00N 19°12' W 096°08'0 0.0
2017-Sep-15 01:30N 19°12' W 096°08'0 0.0
2017-Sep-15 01:01N 19°12' W 096°08'0 0.0
2017-Sep-15 00:30N 19°12' W 096°08'0 0.0
2017-Sep-15 00:00N 19°12' W 096°08'0 0.0
2017-Sep-14 23:30N 19°12' W 096°08'0 0.0
2017-Sep-14 23:00N 19°12' W 096°08'0 0.0
2017-Sep-14 22:30N 19°12' W 096°08'0 0.0
2017-Sep-14 22:01N 19°12' W 096°08'0 0.0
2017-Sep-14 21:30N 19°12' W 096°08'0 0.0
2017-Sep-14 21:01N 19°12' W 096°08'0 0.0
2017-Sep-14 20:30N 19°12' W 096°08'0 0.0
2017-Sep-14 20:01N 19°12' W 096°08'0 0.0
2017-Sep-14 19:31N 19°12' W 096°08'0 0.0
2017-Sep-14 19:00N 19°12' W 096°08'0 0.0
2017-Sep-14 18:30N 19°12' W 096°08'0 0.0
2017-Sep-14 18:00N 19°12' W 096°08'0 0.0
2017-Sep-14 17:30N 19°12' W 096°08'0 0.0
2017-Sep-14 17:00N 19°12' W 096°08'0 0.0
2017-Sep-14 16:31N 19°12' W 096°08'0 0.0
2017-Sep-14 16:00N 19°12' W 096°08'0 0.0
2017-Sep-14 15:30N 19°12' W 096°08'0 0.0
2017-Sep-14 15:00N 19°12' W 096°08'0 0.0
2017-Sep-14 14:30N 19°12' W 096°08'0 0.0
2017-Sep-14 14:01N 19°12' W 096°08'0 0.0
2017-Sep-14 13:31N 19°12' W 096°08'0 0.0
2017-Sep-14 13:01N 19°12' W 096°08'0 0.0
2017-Sep-14 12:31N 19°12' W 096°08'0 0.0
2017-Sep-14 12:00N 19°12' W 096°08'0 0.0
2017-Sep-14 11:31N 19°12' W 096°08'0 0.0
2017-Sep-14 11:01N 19°12' W 096°08'0 0.0
2017-Sep-14 10:30N 19°12' W 096°08'0 0.0
2017-Sep-14 10:00N 19°12' W 096°08'0 0.0
2017-Sep-14 09:31N 19°12' W 096°08'0 0.0
2017-Sep-14 09:01N 19°12' W 096°08'0 0.0
2017-Sep-14 08:30N 19°12' W 096°08'0 0.0
2017-Sep-14 08:00N 19°12' W 096°08'0 0.0
2017-Sep-14 07:30N 19°12' W 096°08'0 0.0
2017-Sep-14 07:00N 19°12' W 096°08'0 0.0
2017-Sep-14 06:30N 19°12' W 096°08'0 0.0
2017-Sep-14 06:00N 19°12' W 096°08'0 0.0
2017-Sep-14 05:30N 19°12' W 096°08'0 0.0
2017-Sep-14 05:00N 19°12' W 096°08'0 0.0
2017-Sep-14 04:31N 19°12' W 096°08'0 0.0
2017-Sep-14 04:00N 19°12' W 096°08'0 0.0
2017-Sep-14 03:31N 19°12' W 096°08'0 0.5
2017-Sep-14 03:00N 19°12' W 096°08'1 1.3
2017-Sep-14 02:30N 19°13' W 096°08'0 0.0
2017-Sep-14 02:00N 19°13' W 096°08'0 0.0
2017-Sep-14 01:30N 19°13' W 096°08'0 0.0
2017-Sep-14 01:00N 19°13' W 096°08'0 0.0
2017-Sep-14 00:30N 19°13' W 096°08'0 0.0
2017-Sep-14 00:00N 19°13' W 096°08'0 0.0
2017-Sep-13 23:30N 19°13' W 096°08'1 1.8
2017-Sep-13 23:01N 19°12' W 096°08'0 0.0
2017-Sep-13 22:30N 19°12' W 096°08'0 0.0
2017-Sep-13 22:00N 19°12' W 096°08'0 0.0
2017-Sep-13 21:31N 19°12' W 096°08'0 0.0
2017-Sep-13 21:01N 19°12' W 096°08'0 0.0
2017-Sep-13 20:31N 19°12' W 096°08'0 0.1
2017-Sep-13 20:01N 19°12' W 096°08'1 2.1
2017-Sep-13 19:30N 19°12' W 096°06'3 5.1
2017-Sep-13 19:00N 19°11' W 096°04'2 4.0
2017-Sep-13 18:30N 19°11' W 096°02'2 4.7
2017-Sep-13 18:00N 19°12' W 095°59'1 2.2
2017-Sep-13 17:30N 19°12' W 095°58'0 0.7
2017-Sep-13 17:00N 19°12' W 095°58'1 1.8
2017-Sep-13 16:30N 19°13' W 095°57'0 0.2
2017-Sep-13 16:00N 19°13' W 095°58'1 1.8
2017-Sep-13 15:30N 19°13' W 095°57'1 1.7
2017-Sep-13 15:00N 19°14' W 095°56'3 6.2
2017-Sep-13 14:30N 19°14' W 095°53'3 6.2
2017-Sep-13 14:00N 19°15' W 095°50'3 6.1
2017-Sep-13 13:30N 19°15' W 095°46'6 6.6
2017-Sep-13 12:34N 19°12' W 095°41'  

Dump ship's entire track history